Time;durP1;ratioP1;P1;durP2;ratioP2;P2;SDS_P1;SDS_P2;PMS_P1;PMS_P2;Temp;Humidity;BMP_temperature;BMP_pressure;BME280_temperature;BME280_humidity;BME280_pressure;Samples;Min_cycle;Max_cycle;Signal;HPM_P1;HPM_P2
2022/07/26 00:00:12;;;;;;;3.03;2.50;;;27.90;48.20;;;;;;5124304;27;20471;-89
2022/07/26 00:02:39;;;;;;;6.20;2.90;;;27.90;48.00;;;;;;5122185;27;20465;-88
2022/07/26 00:05:07;;;;;;;4.60;3.20;;;28.00;47.90;;;;;;5122075;27;20453;-89
2022/07/26 00:07:35;;;;;;;4.60;3.00;;;27.90;47.30;;;;;;5110512;27;20445;-87
2022/07/26 00:10:02;;;;;;;2.40;2.20;;;27.70;48.00;;;;;;5145584;27;20449;-87
2022/07/26 00:17:03;;;;;;;3.63;2.90;;;27.80;47.70;;;;;;5137036;27;20489;-89
2022/07/26 00:19:30;;;;;;;4.03;3.10;;;27.90;48.20;;;;;;5104354;27;20536;-90
2022/07/26 00:24:39;;;;;;;6.73;3.20;;;27.90;48.20;;;;;;5126264;27;20455;-88
2022/07/26 00:27:06;;;;;;;4.90;3.27;;;27.90;47.80;;;;;;5145454;27;20438;-89
2022/07/26 00:29:34;;;;;;;3.17;2.87;;;27.90;48.20;;;;;;5130285;27;20447;-89
2022/07/26 00:32:02;;;;;;;5.67;2.90;;;27.90;48.20;;;;;;5128727;27;20533;-90
2022/07/26 00:34:29;;;;;;;3.73;3.43;;;28.00;48.50;;;;;;5097056;27;20472;-89
2022/07/26 00:36:56;;;;;;;4.37;3.40;;;28.00;48.60;;;;;;5127632;27;20842;-89
2022/07/26 00:39:23;;;;;;;11.40;3.37;;;28.00;49.30;;;;;;5143258;27;20445;-88
2022/07/26 00:41:50;;;;;;;3.23;2.90;;;28.00;49.10;;;;;;5104985;27;20500;-88
2022/07/26 00:44:17;;;;;;;3.87;3.57;;;28.00;49.30;;;;;;5107822;27;20483;-89
2022/07/26 00:46:44;;;;;;;3.70;3.40;;;28.00;49.20;;;;;;5109528;27;20468;-89
2022/07/26 00:49:13;;;;;;;4.97;3.37;;;28.00;49.10;;;;;;5111743;27;20616;-88
2022/07/26 00:51:40;;;;;;;6.10;3.50;;;28.00;48.80;;;;;;5109357;27;20555;-90
2022/07/26 00:54:08;;;;;;;6.67;3.50;;;28.00;48.40;;;;;;5092594;27;20464;-87
2022/07/26 00:56:35;;;;;;;3.80;3.33;;;28.00;48.80;;;;;;5110240;27;20501;-89
2022/07/26 00:59:02;;;;;;;4.10;3.20;;;28.00;48.70;;;;;;5126344;27;20531;-88
2022/07/26 01:01:29;;;;;;;4.47;3.70;;;28.00;48.70;;;;;;5112121;27;20452;-89
2022/07/26 01:03:56;;;;;;;7.30;3.30;;;28.00;49.20;;;;;;5126965;27;20482;-89
2022/07/26 01:06:24;;;;;;;6.77;4.30;;;27.90;49.00;;;;;;5108594;27;20541;-88
2022/07/26 01:08:51;;;;;;;4.80;3.43;;;27.90;49.00;;;;;;5102327;27;20444;-89
2022/07/26 01:11:18;;;;;;;4.03;3.67;;;27.90;48.70;;;;;;5144951;27;20448;-89
2022/07/26 01:13:47;;;;;;;4.60;3.50;;;27.80;48.70;;;;;;5142262;27;20469;-90
2022/07/26 01:16:14;;;;;;;4.37;3.80;;;27.70;48.70;;;;;;5106143;27;20458;-87
2022/07/26 01:23:17;;;;;;;5.63;3.90;;;27.70;48.50;;;;;;5128582;27;20471;-89
2022/07/26 01:25:44;;;;;;;7.83;3.87;;;27.50;48.80;;;;;;5092285;27;20445;-90
2022/07/26 01:32:18;;;;;;;3.70;3.40;;;27.40;48.80;;;;;;5143393;27;20434;-89
2022/07/26 01:34:45;;;;;;;5.13;4.33;;;27.40;48.70;;;;;;5108830;27;20863;-88
2022/07/26 01:37:13;;;;;;;5.13;3.87;;;27.30;48.50;;;;;;5110711;27;20464;-89
2022/07/26 01:39:42;;;;;;;3.70;3.30;;;27.20;48.50;;;;;;5106542;27;20528;-89
2022/07/26 01:42:09;;;;;;;3.77;3.40;;;27.20;49.10;;;;;;5108698;27;20433;-88
2022/07/26 01:44:36;;;;;;;3.97;3.37;;;27.10;49.50;;;;;;5110693;27;20444;-88
2022/07/26 01:50:20;;;;;;;5.60;3.90;;;27.10;49.40;;;;;;5123822;27;20444;-87
2022/07/26 01:52:47;;;;;;;4.50;4.10;;;27.00;48.80;;;;;;5128930;27;21022;-89
2022/07/26 01:55:16;;;;;;;4.90;3.53;;;27.00;49.10;;;;;;5097563;27;20445;-89
2022/07/26 01:57:45;;;;;;;3.53;3.23;;;26.90;49.60;;;;;;5126767;27;21257;-89
2022/07/26 02:00:13;;;;;;;3.67;3.37;;;26.90;49.20;;;;;;5144343;27;20516;-88
2022/07/26 02:02:40;;;;;;;3.97;3.67;;;26.90;48.70;;;;;;5120381;27;20699;-88
2022/07/26 02:05:07;;;;;;;11.63;3.90;;;26.90;48.70;;;;;;5128279;27;20763;-86
2022/07/26 02:07:39;;;;;;;4.90;3.43;;;26.80;48.70;;;;;;5093712;27;20957;-89
2022/07/26 02:10:07;;;;;;;3.93;3.53;;;26.70;48.90;;;;;;5109063;27;20429;-89
2022/07/26 02:12:36;;;;;;;6.57;3.67;;;26.60;48.60;;;;;;5126008;27;20828;-90
2022/07/26 02:15:04;;;;;;;4.40;3.40;;;26.00;49.30;;;;;;5107443;27;20461;-88
2022/07/26 02:17:31;;;;;;;5.30;3.93;;;25.40;52.30;;;;;;5105277;27;20459;-89
2022/07/26 02:19:58;;;;;;;4.13;2.67;;;25.00;53.10;;;;;;5093737;27;20523;-88
2022/07/26 02:22:25;;;;;;;7.00;3.17;;;25.20;52.30;;;;;;5122108;27;20441;-90
2022/07/26 02:29:25;;;;;;;3.53;2.70;;;25.80;50.40;;;;;;5123166;27;20910;-88
2022/07/26 02:31:52;;;;;;;4.53;3.10;;;26.00;49.50;;;;;;5100768;27;20988;-87
2022/07/26 02:34:20;;;;;;;4.03;2.90;;;26.10;49.30;;;;;;5123858;27;20860;-90
2022/07/26 02:36:47;;;;;;;3.40;2.70;;;26.10;49.30;;;;;;5126938;27;20462;-89
2022/07/26 02:39:14;;;;;;;6.57;3.10;;;26.20;49.00;;;;;;5124525;27;20457;-88
2022/07/26 02:41:41;;;;;;;7.50;3.40;;;26.20;48.80;;;;;;5109287;27;20452;-88
2022/07/26 02:44:08;;;;;;;2.97;2.67;;;26.20;49.10;;;;;;5121948;27;20482;-89
2022/07/26 02:46:37;;;;;;;3.50;2.80;;;26.20;49.30;;;;;;5092040;27;20728;-89
2022/07/26 02:55:36;;;;;;;3.27;2.93;;;26.10;49.20;;;;;;5103982;27;20519;-88
2022/07/26 02:58:03;;;;;;;7.03;3.17;;;26.00;49.20;;;;;;5102172;27;20988;-89
2022/07/26 03:00:30;;;;;;;6.00;3.40;;;26.00;49.20;;;;;;5091247;27;20811;-88
2022/07/26 03:02:59;;;;;;;6.90;3.67;;;26.00;49.10;;;;;;5123017;27;20464;-89
2022/07/26 03:06:17;;;;;;;3.43;3.13;;;26.00;49.20;;;;;;5087106;27;20457;-88
2022/07/26 03:13:17;;;;;;;7.70;3.90;;;25.80;49.80;;;;;;5109863;27;20459;-90
2022/07/26 03:15:44;;;;;;;4.20;3.80;;;25.70;50.40;;;;;;5112380;27;20472;-89
2022/07/26 03:18:12;;;;;;;3.10;2.77;;;25.50;51.10;;;;;;5092047;27;20583;-89
2022/07/26 03:20:39;;;;;;;6.60;3.60;;;25.30;50.70;;;;;;5144708;27;20810;-88
2022/07/26 03:23:06;;;;;;;5.33;4.00;;;25.20;51.80;;;;;;5097620;27;20504;-88
2022/07/26 03:26:24;;;;;;;5.47;3.97;;;25.10;52.40;;;;;;5101895;27;20457;-88
2022/07/26 03:28:51;;;;;;;5.57;3.73;;;25.00;53.00;;;;;;5144317;27;20461;-88
2022/07/26 03:31:18;;;;;;;6.43;4.30;;;25.00;54.20;;;;;;5125200;27;20541;-87
2022/07/26 03:33:47;;;;;;;7.17;4.27;;;24.70;53.60;;;;;;5122523;27;20971;-88
2022/07/26 03:36:15;;;;;;;5.97;3.97;;;24.20;54.80;;;;;;5085164;27;20443;-88
2022/07/26 03:44:50;;;;;;;5.23;3.70;;;24.70;53.90;;;;;;5097469;27;20433;-90
2022/07/26 03:47:17;;;;;;;5.07;3.87;;;24.90;54.10;;;;;;5081414;27;20453;-89
2022/07/26 03:49:45;;;;;;;4.43;4.03;;;25.00;53.90;;;;;;5106616;27;20437;-89
2022/07/26 03:52:12;;;;;;;4.67;3.73;;;25.00;53.90;;;;;;5103411;27;20441;-88
2022/07/26 03:54:39;;;;;;;4.77;4.20;;;25.10;53.20;;;;;;5119140;27;20933;-88
2022/07/26 03:57:05;;;;;;;5.53;4.40;;;25.10;53.10;;;;;;5110638;27;20486;-87
2022/07/26 03:59:33;;;;;;;4.50;4.07;;;25.10;53.30;;;;;;5123160;27;20856;-88
2022/07/26 04:02:25;;;;;;;6.70;4.23;;;25.20;53.30;;;;;;5126648;27;20522;-87
2022/07/26 04:04:53;;;;;;;4.30;3.80;;;25.10;53.80;;;;;;5145283;27;20441;-87
2022/07/26 04:07:20;;;;;;;5.60;3.83;;;25.00;54.00;;;;;;5106423;27;20741;-88
2022/07/26 04:09:47;;;;;;;5.20;4.07;;;25.10;53.90;;;;;;5084183;27;20529;-87
2022/07/26 04:12:14;;;;;;;4.07;3.67;;;25.00;54.30;;;;;;5105300;27;20494;-87
2022/07/26 04:14:41;;;;;;;8.77;4.30;;;25.00;54.50;;;;;;5096709;27;20457;-87
2022/07/26 04:17:08;;;;;;;6.33;4.37;;;25.00;54.50;;;;;;5145070;27;20471;-89
2022/07/26 04:19:35;;;;;;;4.80;4.37;;;24.90;55.30;;;;;;5124704;27;20451;-87
2022/07/26 04:24:55;;;;;;;5.93;4.33;;;25.00;54.70;;;;;;5123276;27;20445;-87
2022/07/26 04:27:22;;;;;;;9.63;5.27;;;25.00;54.70;;;;;;5126547;27;20863;-87
2022/07/26 04:29:49;;;;;;;7.20;4.83;;;24.70;54.70;;;;;;5140884;27;20452;-88
2022/07/26 04:32:16;;;;;;;5.90;4.30;;;24.80;54.90;;;;;;5109537;27;20459;-87
2022/07/26 04:34:43;;;;;;;5.17;4.67;;;25.00;54.70;;;;;;5142711;27;20455;-87
2022/07/26 04:37:11;;;;;;;6.47;4.53;;;24.70;55.20;;;;;;5108899;27;20456;-87
2022/07/26 04:39:38;;;;;;;4.27;3.87;;;24.70;55.50;;;;;;5142207;27;20979;-87
2022/07/26 04:42:30;;;;;;;4.97;4.47;;;24.40;56.30;;;;;;5124986;27;20456;-86
2022/07/26 04:44:56;;;;;;;5.60;3.60;;;24.60;55.70;;;;;;5143043;27;20452;-87
2022/07/26 04:47:23;;;;;;;5.43;4.20;;;24.80;54.90;;;;;;5123572;27;20451;-86
2022/07/26 04:49:50;;;;;;;6.00;3.90;;;25.00;54.90;;;;;;5145710;27;20459;-89
2022/07/26 04:52:19;;;;;;;3.80;3.30;;;24.90;54.90;;;;;;5110027;27;20448;-90
2022/07/26 04:54:46;;;;;;;5.67;4.60;;;24.80;55.00;;;;;;5101180;27;20807;-89
2022/07/26 05:00:55;;;;;;;4.30;3.90;;;24.50;56.20;;;;;;5147649;27;20456;-90
2022/07/26 05:03:23;;;;;;;6.20;4.40;;;24.80;55.80;;;;;;5089079;27;20453;-90
2022/07/26 05:05:50;;;;;;;4.30;3.90;;;24.70;55.70;;;;;;5083767;27;20506;-90
2022/07/26 05:08:19;;;;;;;5.67;4.53;;;24.70;55.90;;;;;;5101472;27;20452;-90
2022/07/26 05:10:47;;;;;;;7.83;4.63;;;24.80;55.90;;;;;;5106592;27;20476;-89
2022/07/26 05:13:14;;;;;;;9.53;4.80;;;24.90;55.40;;;;;;5112570;27;20468;-90
2022/07/26 05:15:42;;;;;;;5.00;4.00;;;25.00;54.90;;;;;;5081197;27;20476;-90
2022/07/26 05:18:35;;;;;;;4.43;4.10;;;25.10;55.70;;;;;;5147013;27;20593;-90
2022/07/26 05:21:02;;;;;;;4.43;3.93;;;25.30;55.40;;;;;;5124318;27;20460;-88
2022/07/26 05:23:30;;;;;;;7.33;4.10;;;25.30;54.90;;;;;;5143399;27;20469;-90
2022/07/26 05:25:57;;;;;;;5.67;4.17;;;25.40;54.70;;;;;;5110191;27;20449;-90
2022/07/26 05:28:24;;;;;;;5.00;3.90;;;25.40;54.40;;;;;;5110336;27;20441;-91
2022/07/26 05:30:52;;;;;;;5.07;4.10;;;25.50;53.90;;;;;;5111115;27;20497;-91
2022/07/26 05:33:19;;;;;;;6.77;4.87;;;25.60;53.50;;;;;;5111186;27;20956;-90
2022/07/26 05:35:46;;;;;;;6.43;4.17;;;25.60;53.70;;;;;;5126696;27;20914;-91
2022/07/26 05:38:16;;;;;;;4.23;3.50;;;25.70;53.90;;;;;;5107161;27;20535;-90
2022/07/26 05:40:44;;;;;;;5.53;4.00;;;25.70;53.70;;;;;;5105088;27;20438;-90
2022/07/26 05:43:11;;;;;;;16.97;4.30;;;25.60;53.20;;;;;;5122607;27;20466;-90
2022/07/26 05:45:38;;;;;;;7.73;3.90;;;25.50;53.60;;;;;;5125677;27;20440;-91
2022/07/26 05:50:58;;;;;;;6.90;4.63;;;25.30;55.40;;;;;;5091483;27;20437;-91
2022/07/26 05:53:25;;;;;;;5.50;4.27;;;25.10;56.10;;;;;;5107306;27;20473;-89
2022/07/26 05:55:54;;;;;;;4.87;4.47;;;25.30;55.90;;;;;;5108474;27;20532;-90
2022/07/26 05:58:21;;;;;;;6.10;4.77;;;25.50;54.80;;;;;;5126221;27;21110;-91
2022/07/26 06:00:48;;;;;;;7.77;4.33;;;25.30;55.10;;;;;;5108245;27;20809;-89
2022/07/26 06:03:24;;;;;;;10.30;4.30;;;25.40;55.00;;;;;;5139580;27;20480;-89
2022/07/26 06:05:55;;;;;;;4.83;3.60;;;25.60;55.00;;;;;;5142226;27;20525;-89
2022/07/26 06:08:23;;;;;;;4.90;4.00;;;25.60;54.90;;;;;;5101462;27;20818;-91
2022/07/26 06:10:50;;;;;;;8.03;4.67;;;25.60;54.00;;;;;;5107520;27;20464;-89
2022/07/26 06:13:18;;;;;;;6.80;3.70;;;25.90;54.30;;;;;;5127284;27;20833;-89
2022/07/26 06:20:43;;;;;;;6.10;4.10;;;26.00;53.10;;;;;;5126830;27;20447;-88
2022/07/26 06:23:11;;;;;;;4.40;3.97;;;25.90;52.30;;;;;;5141993;27;20521;-89
2022/07/26 06:25:38;;;;;;;5.90;3.37;;;26.20;51.30;;;;;;5111556;27;20451;-89
2022/07/26 06:28:07;;;;;;;7.60;4.43;;;26.40;51.10;;;;;;5131215;27;20457;-90
2022/07/26 06:30:36;;;;;;;4.97;4.13;;;26.70;50.40;;;;;;5102442;27;20452;-91
2022/07/26 06:33:03;;;;;;;4.17;3.20;;;26.60;50.20;;;;;;5128333;27;20483;-89
2022/07/26 06:35:30;;;;;;;5.97;3.53;;;26.50;50.20;;;;;;5127428;27;20675;-88
2022/07/26 06:37:58;;;;;;;3.77;3.47;;;26.30;49.90;;;;;;5129998;27;20475;-89
2022/07/26 06:41:16;;;;;;;4.33;3.87;;;26.60;50.30;;;;;;5142331;27;20452;-89
2022/07/26 06:44:08;;;;;;;5.30;3.90;;;26.70;50.30;;;;;;5143017;27;20469;-88
2022/07/26 06:46:36;;;;;;;4.47;2.80;;;26.60;50.00;;;;;;5128362;27;20445;-88
2022/07/26 06:49:03;;;;;;;3.07;2.77;;;26.30;49.70;;;;;;5110697;27;20437;-88
2022/07/26 06:51:30;;;;;;;3.83;2.60;;;26.50;49.30;;;;;;5126287;27;20527;-88
2022/07/26 08:34:16;;;;;;;6.03;1.50;;;27.40;40.70;;;;;;5133278;27;20416;-91
2022/07/26 08:36:45;;;;;;;1.50;1.40;;;27.10;40.20;;;;;;5120722;27;20524;-86
2022/07/26 08:39:12;;;;;;;3.10;1.70;;;27.10;41.30;;;;;;5121506;27;20464;-87
2022/07/26 08:41:40;;;;;;;2.27;1.20;;;27.40;40.60;;;;;;5089721;27;20444;-89
2022/07/26 08:47:00;;;;;;;3.40;1.50;;;27.50;39.40;;;;;;5135363;27;20494;-88
2022/07/26 08:49:27;;;;;;;3.03;1.60;;;27.80;38.70;;;;;;5131866;27;20453;-89
2022/07/26 08:51:58;;;;;;;2.60;1.80;;;27.80;39.50;;;;;;5106541;27;20440;-89
2022/07/26 08:54:26;;;;;;;1.87;1.57;;;28.00;38.40;;;;;;5136441;27;21160;-91
2022/07/26 08:56:53;;;;;;;2.20;1.70;;;28.20;38.10;;;;;;5109960;27;20448;-88
2022/07/26 08:59:20;;;;;;;1.73;1.63;;;28.20;38.60;;;;;;5108966;27;20456;-90
2022/07/26 09:01:53;;;;;;;4.10;1.30;;;28.40;37.50;;;;;;5141329;27;20441;-89
2022/07/26 09:04:21;;;;;;;2.10;1.43;;;28.30;37.50;;;;;;5143304;27;20464;-89
2022/07/26 09:07:03;;;;;;;2.30;1.47;;;28.30;37.20;;;;;;5147928;27;20452;-89
2022/07/26 09:09:31;;;;;;;1.30;1.20;;;28.20;37.80;;;;;;5136233;27;20559;-89
2022/07/26 09:12:23;;;;;;;1.63;1.20;;;28.30;37.50;;;;;;5100395;27;21083;-89
2022/07/26 09:14:52;;;;;;;1.87;1.63;;;28.60;37.70;;;;;;5111300;27;20854;-89
2022/07/26 09:17:21;;;;;;;1.77;1.60;;;28.50;37.20;;;;;;5106354;27;20947;-90
2022/07/26 09:20:06;;;;;;;1.87;1.60;;;28.70;37.80;;;;;;5106653;27;20456;-89
2022/07/26 09:23:02;;;;;;;2.33;1.33;;;29.30;37.50;;;;;;5107584;27;20487;-89
2022/07/26 09:25:32;;;;;;;1.70;1.40;;;29.50;37.80;;;;;;5090927;27;20540;-89
2022/07/26 09:27:59;;;;;;;2.70;1.63;;;29.60;35.80;;;;;;5124861;27;20492;-88
2022/07/26 09:30:28;;;;;;;2.60;1.40;;;29.50;36.50;;;;;;5113964;27;22603;-90
2022/07/26 09:33:02;;;;;;;1.80;1.43;;;29.50;36.50;;;;;;5121888;27;20560;-88
2022/07/26 09:35:30;;;;;;;3.43;1.93;;;29.30;36.60;;;;;;5086487;27;20457;-90
2022/07/26 09:37:57;;;;;;;2.50;1.10;;;29.10;35.40;;;;;;5105565;27;20449;-90
2022/07/26 09:40:32;;;;;;;1.90;1.63;;;28.60;35.20;;;;;;5120614;27;21270;-91
2022/07/26 09:46:52;;;;;;;2.63;1.40;;;28.20;36.30;;;;;;5078671;27;20480;-88
2022/07/26 09:49:21;;;;;;;4.10;1.50;;;28.60;37.20;;;;;;5101731;27;20444;-89
2022/07/26 09:52:18;;;;;;;4.40;1.60;;;28.90;36.00;;;;;;5090741;27;20540;-92
2022/07/26 09:54:47;;;;;;;3.60;1.60;;;29.10;35.30;;;;;;5121689;27;20489;-90
2022/07/26 09:57:19;;;;;;;1.77;1.37;;;29.30;36.20;;;;;;5144337;27;20457;-88
2022/07/26 09:59:47;;;;;;;2.67;1.40;;;29.50;34.80;;;;;;5110043;27;20683;-89
2022/07/26 10:02:14;;;;;;;1.50;1.40;;;29.10;34.10;;;;;;5080741;27;20452;-89
2022/07/26 10:04:42;;;;;;;2.20;2.00;;;28.70;34.50;;;;;;5126693;27;20547;-89
2022/07/26 10:07:10;;;;;;;1.93;1.33;;;28.30;35.90;;;;;;5108735;27;20449;-91
2022/07/26 10:09:42;;;;;;;1.53;1.20;;;28.50;35.50;;;;;;5089438;27;20439;-88
2022/07/26 10:12:36;;;;;;;8.87;1.33;;;28.50;35.80;;;;;;5078398;27;20565;-91
2022/07/26 10:15:04;;;;;;;1.50;1.30;;;29.30;35.50;;;;;;5106698;27;21049;-88
2022/07/26 10:17:42;;;;;;;2.40;1.23;;;29.70;33.70;;;;;;5141167;27;20445;-89
2022/07/26 10:20:38;;;;;;;2.17;1.70;;;29.70;33.00;;;;;;5115867;27;20460;-88
2022/07/26 10:23:25;;;;;;;1.57;1.30;;;29.50;34.40;;;;;;5140027;27;20479;-88
2022/07/26 10:25:54;;;;;;;1.50;1.40;;;29.60;33.60;;;;;;5097999;27;20450;-92
2022/07/26 10:28:26;;;;;;;4.30;1.20;;;29.90;33.50;;;;;;5123403;27;20532;-88
2022/07/26 10:31:22;;;;;;;2.07;1.37;;;29.80;32.00;;;;;;5098075;27;20521;-90
2022/07/26 10:36:41;;;;;;;2.40;1.40;;;29.40;34.30;;;;;;5114898;27;20453;-86
2022/07/26 10:39:11;;;;;;;1.87;1.13;;;29.50;32.40;;;;;;5090219;27;21234;-91
2022/07/26 10:41:43;;;;;;;1.93;1.40;;;29.60;32.30;;;;;;5121780;27;20548;-89
2022/07/26 10:44:19;;;;;;;1.50;1.40;;;29.90;32.20;;;;;;5097744;27;21014;-89
2022/07/26 10:47:11;;;;;;;1.40;1.30;;;29.90;32.50;;;;;;5101329;27;20453;-88
2022/07/26 10:49:40;;;;;;;2.30;1.17;;;30.10;32.40;;;;;;5079432;27;20446;-90
2022/07/26 10:52:32;;;;;;;2.17;1.40;;;30.00;32.10;;;;;;5100694;27;20448;-90
2022/07/26 10:55:09;;;;;;;2.83;1.43;;;30.30;31.90;;;;;;5123992;27;20441;-90
2022/07/26 10:57:38;;;;;;;5.33;1.40;;;30.60;30.50;;;;;;5127214;27;20455;-90
2022/07/26 11:00:32;;;;;;;3.50;1.50;;;30.50;29.10;;;;;;5099494;27;20464;-92
2022/07/26 11:02:59;;;;;;;4.03;1.27;;;30.30;29.50;;;;;;5124759;27;20475;-89
2022/07/26 11:05:29;;;;;;;1.63;1.40;;;30.10;30.20;;;;;;5134643;27;21856;-90
2022/07/26 11:08:00;;;;;;;3.27;1.13;;;30.10;29.30;;;;;;5113036;27;20532;-90
2022/07/26 11:10:31;;;;;;;1.20;1.10;;;30.50;29.80;;;;;;5124261;27;20533;-89
2022/07/26 11:13:05;;;;;;;1.30;1.10;;;30.50;29.70;;;;;;5140468;27;20469;-89
2022/07/26 11:15:32;;;;;;;1.80;1.07;;;30.20;30.40;;;;;;5107069;27;20456;-91
2022/07/26 11:18:14;;;;;;;1.77;1.33;;;30.30;30.40;;;;;;5122756;27;20449;-89
2022/07/26 11:20:42;;;;;;;1.77;1.30;;;30.10;30.90;;;;;;5124546;27;21232;-89
2022/07/26 11:23:30;;;;;;;1.30;1.20;;;30.30;30.30;;;;;;5125023;27;20468;-90
2022/07/26 11:26:12;;;;;;;3.90;1.60;;;30.30;29.90;;;;;;5133147;27;20789;-88
2022/07/26 11:29:04;;;;;;;2.03;1.20;;;30.60;30.70;;;;;;5141683;27;20856;-89
2022/07/26 11:31:37;;;;;;;3.07;1.50;;;31.10;30.40;;;;;;5122534;27;20497;-89
2022/07/26 11:36:59;;;;;;;1.30;1.20;;;31.10;29.60;;;;;;5125542;27;20438;-90
2022/07/26 11:39:28;;;;;;;2.80;1.30;;;31.10;31.30;;;;;;5098239;27;20558;-92
2022/07/26 11:41:58;;;;;;;2.80;1.40;;;31.30;28.90;;;;;;5106556;27;20450;-89
2022/07/26 11:44:27;;;;;;;1.80;1.20;;;31.10;28.60;;;;;;5095826;27;20492;-91
2022/07/26 11:46:56;;;;;;;1.30;1.20;;;31.10;28.50;;;;;;5125626;27;20452;-90
2022/07/26 11:49:25;;;;;;;1.53;1.10;;;31.30;29.70;;;;;;5098653;27;20445;-90
2022/07/26 11:51:53;;;;;;;1.83;1.30;;;31.40;30.00;;;;;;5102513;27;20444;-90
2022/07/26 11:54:21;;;;;;;1.97;1.77;;;31.60;30.20;;;;;;5133437;27;20469;-88
2022/07/26 11:56:53;;;;;;;3.40;1.30;;;31.80;30.00;;;;;;5092732;27;20455;-90
2022/07/26 11:59:20;;;;;;;1.50;1.40;;;32.00;29.70;;;;;;5119735;27;20476;-90
2022/07/26 12:01:49;;;;;;;2.00;1.10;;;32.20;29.00;;;;;;5139218;27;20449;-87
2022/07/26 12:04:21;;;;;;;2.43;1.70;;;32.30;28.10;;;;;;5113690;27;20555;-89
2022/07/26 12:06:49;;;;;;;2.50;1.40;;;32.20;27.90;;;;;;5125988;27;20460;-91
2022/07/26 12:09:29;;;;;;;1.63;1.20;;;31.60;28.70;;;;;;5120758;27;20445;-89
2022/07/26 12:11:56;;;;;;;1.57;1.20;;;31.50;28.70;;;;;;5122196;27;20452;-90
2022/07/26 12:14:27;;;;;;;2.30;1.43;;;31.60;28.90;;;;;;5133086;27;20476;-88
2022/07/26 12:16:55;;;;;;;3.00;1.47;;;31.60;28.70;;;;;;5133980;27;20527;-89
2022/07/26 12:19:26;;;;;;;1.40;1.30;;;31.60;28.70;;;;;;5144013;27;20463;-88
2022/07/26 12:21:55;;;;;;;3.67;1.27;;;31.90;28.20;;;;;;5142206;27;20948;-87
2022/07/26 12:24:36;;;;;;;1.73;1.17;;;31.90;28.20;;;;;;5135371;27;20491;-88
2022/07/26 12:27:09;;;;;;;3.13;2.03;;;31.60;29.10;;;;;;5101728;27;20452;-88
2022/07/26 12:29:36;;;;;;;1.10;1.00;;;31.30;27.90;;;;;;5107389;27;20520;-88
2022/07/26 12:32:08;;;;;;;2.10;1.17;;;31.30;28.00;;;;;;5114368;27;20438;-88
2022/07/26 12:34:36;;;;;;;1.97;1.20;;;31.20;29.00;;;;;;5125625;27;20469;-90
2022/07/26 12:37:14;;;;;;;2.30;1.20;;;30.40;28.90;;;;;;5143617;27;20824;-91
2022/07/26 12:39:42;;;;;;;2.70;1.70;;;30.30;30.10;;;;;;5123370;27;20461;-89
2022/07/26 12:46:44;;;;;;;5.03;1.67;;;31.20;29.80;;;;;;5140710;27;20464;-87
2022/07/26 12:49:12;;;;;;;2.70;1.30;;;31.50;29.10;;;;;;5123692;27;20468;-88
2022/07/26 12:55:46;;;;;;;1.73;1.50;;;32.30;27.50;;;;;;5145353;27;20537;-88
2022/07/26 12:58:13;;;;;;;3.80;1.53;;;32.30;27.80;;;;;;5143338;27;20906;-90
2022/07/26 13:00:40;;;;;;;2.00;1.53;;;32.30;28.20;;;;;;5125023;27;20513;-89
2022/07/26 13:03:07;;;;;;;2.93;1.60;;;32.00;28.90;;;;;;5137774;27;20460;-86
2022/07/26 13:05:35;;;;;;;3.73;1.30;;;31.70;29.60;;;;;;5134771;27;20495;-90
2022/07/26 13:08:02;;;;;;;5.00;1.80;;;31.50;29.90;;;;;;5126030;27;20456;-88
2022/07/26 13:11:19;;;;;;;1.60;1.47;;;31.60;29.60;;;;;;5116737;27;20470;-90
2022/07/26 13:15:02;;;;;;;2.50;1.50;;;31.50;29.30;;;;;;5133377;27;21011;-89
2022/07/26 13:22:05;;;;;;;3.00;1.77;;;31.20;29.40;;;;;;5132473;27;20541;-90
2022/07/26 13:24:32;;;;;;;1.50;1.40;;;30.80;30.20;;;;;;5135556;27;20471;-89
2022/07/26 13:27:00;;;;;;;1.70;1.50;;;31.00;29.90;;;;;;5133455;27;20455;-94
2022/07/26 13:29:28;;;;;;;1.70;1.60;;;31.10;29.30;;;;;;5106739;27;20436;-89
2022/07/26 13:31:55;;;;;;;1.80;1.50;;;30.80;30.10;;;;;;5138758;27;21111;-90
2022/07/26 13:34:22;;;;;;;1.50;1.33;;;30.70;31.10;;;;;;5118444;27;20457;-88
2022/07/26 13:36:49;;;;;;;2.50;1.50;;;30.60;29.90;;;;;;5106908;27;20452;-89
2022/07/26 13:39:18;;;;;;;4.80;1.50;;;30.30;30.20;;;;;;5090010;27;20480;-89
2022/07/26 13:41:45;;;;;;;1.67;1.57;;;29.90;31.60;;;;;;5124012;27;20437;-87
2022/07/26 13:44:13;;;;;;;1.57;1.37;;;29.80;32.60;;;;;;5080935;27;21094;-89
2022/07/26 13:46:40;;;;;;;2.00;1.50;;;29.80;32.70;;;;;;5101876;27;20450;-91
2022/07/26 13:49:07;;;;;;;1.83;1.20;;;30.10;32.80;;;;;;5135683;27;20456;-88
2022/07/26 13:52:25;;;;;;;2.27;1.70;;;30.40;32.20;;;;;;5107605;27;20529;-89
2022/07/26 13:54:53;;;;;;;3.67;1.73;;;30.50;31.80;;;;;;5082310;27;20444;-89
2022/07/26 13:57:20;;;;;;;5.00;2.00;;;30.60;32.30;;;;;;5142374;27;20859;-89
2022/07/26 13:59:47;;;;;;;2.23;1.50;;;30.60;31.10;;;;;;5146150;27;20476;-88
2022/07/26 14:02:15;;;;;;;3.03;1.60;;;30.20;31.50;;;;;;5107908;27;20441;-90
2022/07/26 14:04:42;;;;;;;1.70;1.50;;;30.30;32.80;;;;;;5132918;27;20545;-90
2022/07/26 14:07:09;;;;;;;1.60;1.40;;;30.30;31.80;;;;;;5123427;27;20541;-89
2022/07/26 14:09:36;;;;;;;1.93;1.43;;;30.50;31.20;;;;;;5107699;27;20449;-89
2022/07/26 14:14:55;;;;;;;1.40;1.30;;;30.10;31.50;;;;;;5107552;27;20457;-89
2022/07/26 14:17:22;;;;;;;1.80;1.67;;;30.70;31.20;;;;;;5144805;27;20437;-88
2022/07/26 14:19:50;;;;;;;5.00;1.63;;;31.00;29.90;;;;;;5132933;27;20487;-90
2022/07/26 14:22:18;;;;;;;1.73;1.40;;;31.10;29.80;;;;;;5125601;27;20472;-88
2022/07/26 14:24:45;;;;;;;1.83;1.50;;;31.40;30.00;;;;;;5143786;27;21191;-92
2022/07/26 14:30:41;;;;;;;3.40;1.50;;;31.60;29.30;;;;;;5134718;27;20457;-88
2022/07/26 14:33:09;;;;;;;2.77;1.80;;;31.80;28.90;;;;;;5142947;27;20481;-89
2022/07/26 14:35:36;;;;;;;1.40;1.30;;;32.00;29.70;;;;;;5083930;27;20445;-89
2022/07/26 14:38:02;;;;;;;1.93;1.50;;;32.20;28.20;;;;;;5094273;27;20446;-88
2022/07/26 14:40:54;;;;;;;2.00;1.33;;;32.00;28.50;;;;;;5106221;27;20463;-87
2022/07/26 14:43:22;;;;;;;2.03;1.30;;;32.20;28.70;;;;;;5112917;27;20472;-88
2022/07/26 14:45:50;;;;;;;2.37;1.57;;;31.80;28.90;;;;;;5097118;27;20449;-88
2022/07/26 14:48:17;;;;;;;1.80;1.30;;;31.40;29.70;;;;;;5084092;27;20499;-88
2022/07/26 14:50:45;;;;;;;1.50;1.17;;;31.00;29.50;;;;;;5102407;27;20956;-89
2022/07/26 14:53:14;;;;;;;1.97;1.40;;;30.80;30.00;;;;;;5122090;27;20542;-91
2022/07/26 14:55:41;;;;;;;1.87;1.40;;;30.40;31.20;;;;;;5142053;27;20553;-89
2022/07/26 15:01:01;;;;;;;1.87;1.50;;;30.50;31.00;;;;;;5121877;27;20490;-90
2022/07/26 15:03:29;;;;;;;1.60;1.50;;;30.60;31.00;;;;;;5109927;27;20477;-89
2022/07/26 15:05:56;;;;;;;2.40;1.50;;;30.80;30.90;;;;;;5122123;27;21088;-88
2022/07/26 15:08:23;;;;;;;2.17;1.23;;;31.00;30.90;;;;;;5086454;27;20467;-89
2022/07/26 15:10:50;;;;;;;2.43;1.77;;;30.90;30.20;;;;;;5106460;27;20451;-89
2022/07/26 15:13:18;;;;;;;2.57;1.37;;;30.90;30.90;;;;;;5105488;27;21120;-89
2022/07/26 15:15:45;;;;;;;2.53;1.37;;;30.80;30.50;;;;;;5123058;27;20971;-89
2022/07/26 15:18:17;;;;;;;3.60;1.47;;;30.60;30.90;;;;;;5120827;27;20460;-91
2022/07/26 15:20:45;;;;;;;1.77;1.23;;;30.50;31.60;;;;;;5103834;27;20506;-90
2022/07/26 15:23:13;;;;;;;3.00;1.40;;;30.50;31.20;;;;;;5139275;27;20865;-90
2022/07/26 15:25:40;;;;;;;1.50;1.33;;;30.60;31.30;;;;;;5119977;27;20927;-87
2022/07/26 15:28:33;;;;;;;1.50;1.30;;;30.30;31.30;;;;;;5136618;27;20465;-90
2022/07/26 15:31:00;;;;;;;1.60;1.50;;;30.10;31.80;;;;;;5121922;27;20441;-88
2022/07/26 15:33:30;;;;;;;2.17;1.60;;;30.10;31.80;;;;;;5084691;27;20479;-88
2022/07/26 15:35:57;;;;;;;4.07;1.57;;;30.00;31.90;;;;;;5106676;27;20437;-90
2022/07/26 15:38:24;;;;;;;4.23;1.83;;;30.20;31.70;;;;;;5134621;27;20490;-89
2022/07/26 15:41:42;;;;;;;1.40;1.30;;;30.30;30.90;;;;;;5095269;27;20822;-90
2022/07/26 15:44:40;;;;;;;1.83;1.30;;;30.30;31.20;;;;;;5123601;27;20461;-89
2022/07/26 15:47:07;;;;;;;1.40;1.30;;;30.60;31.00;;;;;;5096493;27;20448;-89
2022/07/26 15:49:36;;;;;;;1.93;1.50;;;30.80;30.50;;;;;;5101867;27;20453;-90
2022/07/26 15:52:28;;;;;;;1.63;1.40;;;30.80;30.60;;;;;;5092798;27;20460;-90
2022/07/26 15:54:55;;;;;;;3.80;1.67;;;30.70;30.80;;;;;;5086147;27;20450;-88
2022/07/26 15:57:22;;;;;;;1.60;1.50;;;30.40;31.00;;;;;;5093025;27;20545;-90
2022/07/26 15:59:49;;;;;;;2.90;1.63;;;30.40;31.20;;;;;;5088284;27;21081;-89
2022/07/26 16:02:17;;;;;;;2.03;1.83;;;30.30;31.30;;;;;;5115160;27;20445;-91
2022/07/26 16:04:45;;;;;;;5.07;1.73;;;30.30;31.50;;;;;;5111813;27;20480;-89
2022/07/26 16:07:12;;;;;;;1.80;1.70;;;30.30;31.50;;;;;;5113320;27;20508;-90
2022/07/26 16:09:39;;;;;;;2.17;1.53;;;30.30;32.10;;;;;;5111132;27;20614;-89
2022/07/26 16:16:15;;;;;;;1.40;1.30;;;30.40;31.60;;;;;;5112013;27;20417;-90
2022/07/26 16:18:42;;;;;;;3.03;1.70;;;30.30;31.70;;;;;;5124653;27;20821;-90